Time;durP1;ratioP1;P1;durP2;ratioP2;P2;SDS_P1;SDS_P2;PMS_P1;PMS_P2;Temp;Humidity;BMP_temperature;BMP_pressure;BME280_temperature;BME280_humidity;BME280_pressure;Samples;Min_cycle;Max_cycle;Signal;HPM_P1;HPM_P2
2020/12/25 00:00:15;;;;;;;5.23;3.73;;;7.40;83.30;;;;;;4885993;28;91369;-75
2020/12/25 00:02:41;;;;;;;7.23;4.37;;;7.40;83.30;;;;;;4885303;28;92967;-75
2020/12/25 00:05:07;;;;;;;6.40;4.07;;;7.40;83.10;;;;;;4885679;28;94683;-75
2020/12/25 00:07:33;;;;;;;4.93;3.40;;;7.40;82.90;;;;;;4869693;28;93373;-75
2020/12/25 00:09:58;;;;;;;4.80;3.67;;;7.40;82.70;;;;;;4884928;28;92605;-76
2020/12/25 00:12:24;;;;;;;4.53;3.30;;;7.40;82.80;;;;;;4885707;28;93106;-76
2020/12/25 00:14:50;;;;;;;4.50;3.30;;;7.40;82.90;;;;;;4902199;28;93039;-75
2020/12/25 00:17:17;;;;;;;5.90;3.77;;;7.40;83.00;;;;;;4903119;28;91940;-75
2020/12/25 00:19:43;;;;;;;7.13;4.13;;;7.30;83.10;;;;;;4900776;28;92137;-75
2020/12/25 00:22:09;;;;;;;8.00;4.87;;;7.30;83.20;;;;;;4869085;28;96421;-76
2020/12/25 00:24:35;;;;;;;8.60;5.00;;;7.30;83.40;;;;;;4885527;28;93149;-75
2020/12/25 00:27:00;;;;;;;9.27;5.27;;;7.30;83.70;;;;;;4902293;28;91989;-75
2020/12/25 00:29:26;;;;;;;6.03;4.17;;;7.30;83.90;;;;;;4885877;28;92064;-75
2020/12/25 00:31:52;;;;;;;5.07;3.83;;;7.30;84.00;;;;;;4879990;28;97287;-75
2020/12/25 00:34:18;;;;;;;7.10;4.53;;;7.30;84.40;;;;;;4897637;28;96782;-76
2020/12/25 00:36:46;;;;;;;6.80;4.10;;;7.30;84.50;;;;;;4883000;28;91775;-75
2020/12/25 00:39:17;;;;;;;6.20;4.43;;;7.30;84.60;;;;;;4865751;28;92080;-75
2020/12/25 00:41:49;;;;;;;7.37;4.73;;;7.30;84.80;;;;;;4865227;28;94977;-75
2020/12/25 00:44:17;;;;;;;5.23;4.07;;;7.30;84.60;;;;;;4881763;28;96075;-75
2020/12/25 00:46:45;;;;;;;6.50;4.23;;;7.20;84.70;;;;;;4881527;28;91901;-74
2020/12/25 00:49:11;;;;;;;6.87;4.17;;;7.20;84.90;;;;;;4866960;28;91647;-75
2020/12/25 00:51:37;;;;;;;7.73;5.10;;;7.20;85.00;;;;;;4866345;28;93253;-76
2020/12/25 00:54:04;;;;;;;6.70;4.37;;;7.20;84.90;;;;;;4849833;28;96303;-75
2020/12/25 00:56:46;;;;;;;5.70;4.57;;;7.20;84.70;;;;;;4865315;28;92931;-75
2020/12/25 00:59:16;;;;;;;6.40;4.47;;;7.30;84.80;;;;;;4881873;28;92112;-75
2020/12/25 01:01:43;;;;;;;4.33;3.53;;;7.30;84.90;;;;;;4881728;28;93205;-75
2020/12/25 01:04:08;;;;;;;4.63;4.00;;;7.30;85.00;;;;;;4883454;28;93318;-76
2020/12/25 01:06:34;;;;;;;7.03;4.33;;;7.30;85.00;;;;;;4883674;28;92190;-75
2020/12/25 01:09:00;;;;;;;5.60;4.33;;;7.30;85.00;;;;;;4882823;28;92097;-75
2020/12/25 01:11:26;;;;;;;5.43;4.00;;;7.30;85.00;;;;;;4850420;28;96285;-75
2020/12/25 01:13:52;;;;;;;6.03;4.63;;;7.30;85.20;;;;;;4865717;28;96555;-75
2020/12/25 01:16:19;;;;;;;6.50;4.67;;;7.30;84.90;;;;;;4883450;28;92447;-76
2020/12/25 01:18:46;;;;;;;6.53;4.83;;;7.30;85.00;;;;;;4884701;28;92396;-75
2020/12/25 01:21:13;;;;;;;6.33;4.47;;;7.30;85.10;;;;;;4883348;28;94209;-75
2020/12/25 01:23:39;;;;;;;5.27;3.90;;;7.30;85.00;;;;;;4865869;28;94265;-75
2020/12/25 01:26:05;;;;;;;6.47;4.60;;;7.30;85.00;;;;;;4881358;28;91897;-75
2020/12/25 01:28:31;;;;;;;4.77;3.87;;;7.30;85.20;;;;;;4882728;28;92214;-76
2020/12/25 01:30:57;;;;;;;5.23;4.23;;;7.30;85.30;;;;;;4864644;28;96332;-75
2020/12/25 01:33:23;;;;;;;8.17;6.03;;;7.30;85.20;;;;;;4883590;28;94735;-76
2020/12/25 01:35:49;;;;;;;6.67;4.23;;;7.40;85.20;;;;;;4884213;28;91950;-75
2020/12/25 01:38:15;;;;;;;6.87;3.83;;;7.40;85.30;;;;;;4868959;28;91489;-76
2020/12/25 01:40:41;;;;;;;5.10;3.70;;;7.40;85.20;;;;;;4884164;28;92792;-76
2020/12/25 01:43:06;;;;;;;4.50;3.40;;;7.40;85.30;;;;;;4899591;28;95955;-75
2020/12/25 01:45:32;;;;;;;5.23;3.60;;;7.40;85.40;;;;;;4900454;28;92787;-75
2020/12/25 01:47:59;;;;;;;5.07;3.83;;;7.40;85.60;;;;;;4901271;28;93286;-75
2020/12/25 01:50:27;;;;;;;6.00;4.00;;;7.30;85.70;;;;;;4884645;28;92019;-76
2020/12/25 01:52:55;;;;;;;4.63;3.60;;;7.40;85.80;;;;;;4901321;28;92528;-79
2020/12/25 01:55:27;;;;;;;5.57;3.70;;;7.40;85.70;;;;;;4907515;28;91874;-77
2020/12/25 01:57:58;;;;;;;4.40;3.13;;;7.40;85.80;;;;;;4888802;28;91911;-79
2020/12/25 02:00:25;;;;;;;4.63;3.38;;;7.30;85.80;;;;;;4901461;28;93285;-75
2020/12/25 02:02:51;;;;;;;4.00;3.17;;;7.40;86.00;;;;;;4900775;28;92522;-75
2020/12/25 02:05:17;;;;;;;4.27;3.50;;;7.30;86.00;;;;;;4868106;28;91989;-75
2020/12/25 02:07:43;;;;;;;3.87;3.30;;;7.30;86.00;;;;;;4901202;28;91995;-76
2020/12/25 02:10:13;;;;;;;4.80;3.73;;;7.40;86.00;;;;;;4882252;28;93727;-75
2020/12/25 02:12:40;;;;;;;4.77;3.87;;;7.40;86.00;;;;;;4900600;28;93919;-76
2020/12/25 02:15:07;;;;;;;6.77;4.07;;;7.40;86.00;;;;;;4883201;28;91907;-75
2020/12/25 02:17:33;;;;;;;4.43;3.13;;;7.40;86.10;;;;;;4867928;28;92089;-76
2020/12/25 02:20:02;;;;;;;4.50;3.43;;;7.40;86.00;;;;;;4901075;28;93170;-76
2020/12/25 02:22:31;;;;;;;4.17;3.03;;;7.40;86.20;;;;;;4886922;28;96337;-75
2020/12/25 02:24:57;;;;;;;5.70;3.33;;;7.40;86.00;;;;;;4902269;28;92031;-75
2020/12/25 02:27:22;;;;;;;5.37;3.67;;;7.30;86.20;;;;;;4887792;28;91488;-75
2020/12/25 02:29:48;;;;;;;5.40;3.40;;;7.30;86.20;;;;;;4903280;28;93719;-75
2020/12/25 02:32:14;;;;;;;6.13;3.90;;;7.30;86.40;;;;;;4866614;28;96065;-75
2020/12/25 02:34:40;;;;;;;5.90;4.20;;;7.30;86.40;;;;;;4884589;28;92826;-75
2020/12/25 02:37:06;;;;;;;6.50;4.60;;;7.30;86.50;;;;;;4866993;28;92197;-75
2020/12/25 02:39:31;;;;;;;6.13;3.80;;;7.30;86.40;;;;;;4884709;28;93127;-76
2020/12/25 02:41:57;;;;;;;4.70;3.97;;;7.40;86.40;;;;;;4883734;28;92941;-75
2020/12/25 02:44:23;;;;;;;7.03;3.90;;;7.30;86.40;;;;;;4884917;28;92628;-75
2020/12/25 02:46:49;;;;;;;5.67;3.63;;;7.40;86.20;;;;;;4867662;28;92354;-75
2020/12/25 02:49:15;;;;;;;4.43;3.93;;;7.40;86.00;;;;;;4867057;28;93096;-75
2020/12/25 02:51:40;;;;;;;9.27;4.60;;;7.40;86.10;;;;;;4867590;28;93388;-75
2020/12/25 02:54:06;;;;;;;6.83;4.23;;;7.40;86.20;;;;;;4866835;28;92492;-75
2020/12/25 02:56:32;;;;;;;7.67;4.53;;;7.40;86.50;;;;;;4867437;28;92471;-75
2020/12/25 02:58:58;;;;;;;5.97;4.50;;;7.40;86.40;;;;;;4866289;28;94148;-75
2020/12/25 03:01:24;;;;;;;7.93;4.97;;;7.40;86.20;;;;;;4884563;28;93054;-75
2020/12/25 03:03:49;;;;;;;6.70;5.00;;;7.40;86.20;;;;;;4867292;28;92100;-75
2020/12/25 03:06:15;;;;;;;7.47;5.33;;;7.40;86.30;;;;;;4866768;28;92175;-75
2020/12/25 03:08:41;;;;;;;6.40;4.90;;;7.40;86.40;;;;;;4873620;28;92819;-75
2020/12/25 03:11:07;;;;;;;6.33;4.73;;;7.40;86.40;;;;;;4874796;28;96322;-75
2020/12/25 03:13:36;;;;;;;6.30;4.27;;;7.40;86.40;;;;;;4867422;28;91900;-75
2020/12/25 03:16:03;;;;;;;5.80;4.37;;;7.40;86.50;;;;;;4866840;28;91363;-75
2020/12/25 03:18:29;;;;;;;5.93;3.87;;;7.40;86.40;;;;;;4866828;28;96164;-75
2020/12/25 03:20:55;;;;;;;6.07;4.03;;;7.40;86.40;;;;;;4866175;28;95273;-74
2020/12/25 03:23:21;;;;;;;5.37;4.03;;;7.40;86.10;;;;;;4867472;28;93085;-75
2020/12/25 03:25:47;;;;;;;5.90;3.87;;;7.30;85.90;;;;;;4898573;28;92134;-76
2020/12/25 03:28:13;;;;;;;6.93;4.40;;;7.30;85.90;;;;;;4881647;28;96079;-75
2020/12/25 03:30:38;;;;;;;4.23;3.40;;;7.30;85.80;;;;;;4882875;28;92374;-75
2020/12/25 03:33:04;;;;;;;5.73;3.90;;;7.30;85.40;;;;;;4883576;28;91970;-75
2020/12/25 03:35:30;;;;;;;7.80;3.63;;;7.20;85.50;;;;;;4868385;28;92153;-76
2020/12/25 03:37:56;;;;;;;5.47;3.63;;;7.20;85.80;;;;;;4867240;28;96264;-74
2020/12/25 03:40:22;;;;;;;4.13;3.03;;;7.20;85.70;;;;;;4867540;28;92123;-75
2020/12/25 03:42:48;;;;;;;5.73;3.27;;;7.20;85.80;;;;;;4867272;28;92510;-75
2020/12/25 03:45:15;;;;;;;5.63;3.90;;;7.20;85.80;;;;;;4898186;28;92538;-75
2020/12/25 03:47:41;;;;;;;4.23;3.13;;;7.10;85.80;;;;;;4882897;28;94780;-76
2020/12/25 03:50:07;;;;;;;3.90;2.80;;;7.10;85.80;;;;;;4882894;28;93763;-76
2020/12/25 03:52:33;;;;;;;4.27;2.80;;;7.10;85.50;;;;;;4866658;28;91924;-75
2020/12/25 03:54:59;;;;;;;2.87;2.37;;;7.20;85.30;;;;;;4865846;28;92124;-75
2020/12/25 03:57:25;;;;;;;7.60;2.70;;;7.10;85.40;;;;;;4866389;28;97464;-75
2020/12/25 03:59:50;;;;;;;5.07;2.60;;;7.10;84.90;;;;;;4866030;28;92867;-76
2020/12/25 04:02:16;;;;;;;4.07;2.37;;;7.10;85.50;;;;;;4865824;28;91955;-75
2020/12/25 04:04:42;;;;;;;3.53;2.60;;;7.10;85.00;;;;;;4898391;28;91308;-75
2020/12/25 04:07:08;;;;;;;3.80;2.57;;;7.10;85.20;;;;;;4865366;28;96231;-76
2020/12/25 04:09:33;;;;;;;3.10;2.60;;;7.00;85.20;;;;;;4897952;28;95775;-75
2020/12/25 04:11:59;;;;;;;3.70;2.50;;;7.00;85.30;;;;;;4882504;28;92824;-75
2020/12/25 04:14:25;;;;;;;3.13;2.20;;;6.90;85.60;;;;;;4866372;28;92122;-76
2020/12/25 04:16:51;;;;;;;3.03;1.90;;;6.90;85.30;;;;;;4866006;28;96862;-76
2020/12/25 04:19:17;;;;;;;3.13;2.23;;;7.00;84.70;;;;;;4882070;28;91877;-75
2020/12/25 04:21:42;;;;;;;3.23;1.90;;;7.00;84.50;;;;;;4866709;28;91873;-76
2020/12/25 04:24:08;;;;;;;3.30;2.20;;;7.00;84.70;;;;;;4866012;28;92222;-75
2020/12/25 04:26:34;;;;;;;2.07;1.70;;;7.00;84.50;;;;;;4866538;28;96562;-76
2020/12/25 04:29:00;;;;;;;2.37;1.73;;;6.90;84.90;;;;;;4897975;28;92806;-74
2020/12/25 04:31:26;;;;;;;2.30;1.90;;;6.90;84.70;;;;;;4850338;28;92062;-76
2020/12/25 04:33:53;;;;;;;3.50;2.00;;;6.90;84.90;;;;;;4883595;28;91981;-76
2020/12/25 04:36:19;;;;;;;3.60;2.20;;;6.90;84.50;;;;;;4865076;28;94174;-75
2020/12/25 04:38:46;;;;;;;4.00;2.23;;;7.00;84.00;;;;;;4865912;28;96489;-76
2020/12/25 04:41:12;;;;;;;3.93;2.10;;;6.90;83.90;;;;;;4882559;28;92737;-75
2020/12/25 04:43:41;;;;;;;4.73;2.20;;;6.90;84.00;;;;;;4865871;28;92518;-75
2020/12/25 04:46:08;;;;;;;3.13;1.53;;;6.90;84.10;;;;;;4882677;28;91998;-75
2020/12/25 04:48:36;;;;;;;3.67;1.80;;;6.90;84.60;;;;;;4865957;28;93325;-75
2020/12/25 04:51:02;;;;;;;2.63;1.83;;;6.90;84.20;;;;;;4866223;28;91842;-75
2020/12/25 04:53:29;;;;;;;2.43;1.70;;;6.90;83.90;;;;;;4866766;28;91357;-75
2020/12/25 04:55:55;;;;;;;2.30;1.73;;;6.90;83.80;;;;;;4866514;28;93150;-76
2020/12/25 04:58:21;;;;;;;3.87;2.23;;;6.90;84.20;;;;;;4865577;28;95416;-75
2020/12/25 05:01:05;;;;;;;3.30;2.23;;;6.90;84.20;;;;;;4881874;28;92962;-76
2020/12/25 05:03:38;;;;;;;4.53;3.20;;;6.90;84.40;;;;;;4883439;28;92021;-76
2020/12/25 05:06:05;;;;;;;4.70;2.30;;;6.90;84.20;;;;;;4865183;28;96277;-75
2020/12/25 05:08:41;;;;;;;3.17;1.90;;;6.90;83.80;;;;;;4866442;28;95555;-75
2020/12/25 05:11:09;;;;;;;2.87;2.37;;;6.90;83.80;;;;;;4881434;28;91980;-75
2020/12/25 05:13:59;;;;;;;4.80;2.47;;;6.90;83.80;;;;;;4866648;28;92150;-75
2020/12/25 05:16:28;;;;;;;3.23;1.90;;;6.90;83.80;;;;;;4865104;28;96642;-78
2020/12/25 05:18:54;;;;;;;3.00;2.10;;;6.90;83.90;;;;;;4867018;28;92368;-75
2020/12/25 05:21:22;;;;;;;2.33;1.80;;;6.90;84.10;;;;;;4884428;28;91991;-81
2020/12/25 05:23:49;;;;;;;3.53;2.10;;;6.90;83.80;;;;;;4871626;28;92121;-77
2020/12/25 05:26:16;;;;;;;3.60;2.07;;;6.90;84.00;;;;;;4886671;28;94354;-81
2020/12/25 05:28:45;;;;;;;4.17;2.50;;;6.90;84.10;;;;;;4865288;28;96569;-76
2020/12/25 05:31:11;;;;;;;3.67;2.10;;;6.90;84.20;;;;;;4895939;28;92142;-75
2020/12/25 05:33:38;;;;;;;4.03;2.03;;;6.90;84.20;;;;;;4865633;28;92169;-75
2020/12/25 05:36:07;;;;;;;4.37;2.37;;;6.90;84.20;;;;;;4881629;28;93241;-74
2020/12/25 05:38:33;;;;;;;4.80;3.17;;;6.90;84.30;;;;;;4864820;28;95633;-75
2020/12/25 05:41:03;;;;;;;6.87;3.60;;;6.90;84.60;;;;;;4882905;28;92371;-76
2020/12/25 05:43:29;;;;;;;6.10;4.10;;;6.90;84.50;;;;;;4897571;28;91369;-76
2020/12/25 05:45:55;;;;;;;5.00;3.33;;;7.00;84.40;;;;;;4865377;28;93568;-76
2020/12/25 05:48:21;;;;;;;6.63;4.00;;;7.00;84.40;;;;;;4881236;28;92357;-76
2020/12/25 05:50:47;;;;;;;7.10;4.00;;;7.00;84.50;;;;;;4864892;28;92990;-75
2020/12/25 05:53:13;;;;;;;4.67;3.63;;;7.00;84.50;;;;;;4865615;28;92012;-76
2020/12/25 05:55:39;;;;;;;6.43;3.73;;;7.00;84.50;;;;;;4882660;28;93167;-80
2020/12/25 05:58:05;;;;;;;5.53;3.53;;;7.00;84.30;;;;;;4864658;28;95010;-75
2020/12/25 06:00:33;;;;;;;4.10;2.87;;;6.90;84.50;;;;;;4881833;28;91924;-75
2020/12/25 06:02:59;;;;;;;4.80;2.80;;;6.90;84.70;;;;;;4882285;28;92105;-76
2020/12/25 06:05:27;;;;;;;3.10;2.57;;;6.90;84.90;;;;;;4881334;28;93085;-76
2020/12/25 06:07:54;;;;;;;3.53;3.13;;;6.90;85.10;;;;;;4864923;28;95545;-75
2020/12/25 06:10:25;;;;;;;4.57;2.83;;;6.80;85.20;;;;;;4864341;28;92004;-75
2020/12/25 06:12:52;;;;;;;3.87;3.30;;;6.80;85.20;;;;;;4880646;28;92051;-76
2020/12/25 06:15:31;;;;;;;6.03;3.57;;;6.80;85.50;;;;;;4880319;28;94681;-75
2020/12/25 06:18:14;;;;;;;4.30;3.20;;;6.90;85.70;;;;;;4864575;28;96496;-75
2020/12/25 06:20:54;;;;;;;5.00;2.70;;;6.90;85.50;;;;;;4865297;28;92318;-75
2020/12/25 06:23:21;;;;;;;4.13;2.90;;;6.90;85.30;;;;;;4863952;28;92139;-75
2020/12/25 06:25:50;;;;;;;4.00;3.60;;;6.80;85.40;;;;;;4895925;28;96457;-76
2020/12/25 06:28:18;;;;;;;5.03;3.30;;;6.90;85.60;;;;;;4863435;28;96213;-75
2020/12/25 06:30:44;;;;;;;4.57;2.87;;;6.90;85.80;;;;;;4881486;28;92382;-76
2020/12/25 06:33:10;;;;;;;3.30;2.63;;;6.90;85.60;;;;;;4881267;28;91356;-74
2020/12/25 06:35:45;;;;;;;5.90;2.87;;;6.90;85.60;;;;;;4881601;28;93271;-75
2020/12/25 06:38:13;;;;;;;3.27;2.37;;;6.90;85.70;;;;;;4863550;28;96295;-74
2020/12/25 06:40:39;;;;;;;3.13;2.60;;;6.90;85.50;;;;;;4864317;28;92944;-75
2020/12/25 06:43:17;;;;;;;4.90;2.77;;;6.90;85.50;;;;;;4881450;28;92255;-75
2020/12/25 06:45:50;;;;;;;5.30;2.53;;;6.90;85.60;;;;;;4864175;28;96371;-75
2020/12/25 06:48:16;;;;;;;4.00;3.07;;;6.80;85.80;;;;;;4864095;28;92348;-75
2020/12/25 06:50:45;;;;;;;4.03;2.97;;;6.80;86.10;;;;;;4864360;28;92450;-76
2020/12/25 06:53:29;;;;;;;3.90;2.60;;;6.80;86.30;;;;;;4880577;28;92579;-74
2020/12/25 06:56:16;;;;;;;3.87;2.57;;;6.80;86.20;;;;;;4864037;28;96020;-76
2020/12/25 06:58:54;;;;;;;4.63;3.17;;;6.90;86.10;;;;;;4864368;28;96452;-75
2020/12/25 07:01:41;;;;;;;4.70;3.03;;;6.80;86.20;;;;;;4881057;28;91949;-76
2020/12/25 07:04:31;;;;;;;2.97;2.67;;;6.90;85.90;;;;;;4864615;28;92228;-75
2020/12/25 07:07:09;;;;;;;4.40;3.00;;;6.90;86.10;;;;;;4866790;28;97427;-75
2020/12/25 07:09:37;;;;;;;5.80;3.47;;;6.90;85.90;;;;;;4883893;28;93835;-75
2020/12/25 07:12:19;;;;;;;4.70;3.20;;;6.90;85.80;;;;;;4884634;28;91818;-76
2020/12/25 07:14:45;;;;;;;6.88;3.42;;;6.90;85.90;;;;;;4867481;28;91977;-75
2020/12/25 07:17:11;;;;;;;3.80;3.30;;;6.90;86.00;;;;;;4866810;28;96214;-75
2020/12/25 07:19:37;;;;;;;5.10;3.90;;;6.90;86.00;;;;;;4866911;28;93343;-75
2020/12/25 07:22:07;;;;;;;4.93;3.57;;;6.90;85.90;;;;;;4867627;28;92220;-75
2020/12/25 07:24:38;;;;;;;5.60;3.83;;;6.90;85.90;;;;;;4883966;28;92223;-75
2020/12/25 07:27:05;;;;;;;6.00;3.78;;;6.90;86.00;;;;;;4884562;28;93530;-76
2020/12/25 07:29:32;;;;;;;4.93;3.93;;;6.90;86.10;;;;;;4882085;28;96675;-75
2020/12/25 07:31:58;;;;;;;4.50;3.43;;;6.90;86.00;;;;;;4883848;28;93039;-75
2020/12/25 07:34:25;;;;;;;5.90;3.80;;;6.90;86.10;;;;;;4866514;28;92134;-75
2020/12/25 07:36:53;;;;;;;4.77;3.87;;;6.90;85.90;;;;;;4867004;28;96108;-76
2020/12/25 07:39:23;;;;;;;6.73;5.37;;;6.90;85.80;;;;;;4866218;28;95676;-75
2020/12/25 07:41:50;;;;;;;6.83;5.60;;;6.90;85.40;;;;;;4867017;28;92655;-76
2020/12/25 07:44:17;;;;;;;11.77;7.30;;;6.90;85.40;;;;;;4866565;28;92284;-75
2020/12/25 07:46:43;;;;;;;13.07;8.77;;;6.90;85.40;;;;;;4898760;28;96940;-75
2020/12/25 07:49:09;;;;;;;8.53;6.10;;;6.90;85.80;;;;;;4898773;28;96571;-76
2020/12/25 07:51:36;;;;;;;7.87;5.53;;;6.90;85.10;;;;;;4866528;28;91938;-75
2020/12/25 07:54:03;;;;;;;4.87;2.90;;;6.90;84.50;;;;;;4867243;28;92805;-76
2020/12/25 07:56:31;;;;;;;4.63;3.60;;;6.90;83.10;;;;;;4882827;28;94600;-75
2020/12/25 07:58:58;;;;;;;5.53;3.53;;;6.80;83.20;;;;;;4867099;28;93872;-76
2020/12/25 08:01:27;;;;;;;5.33;3.37;;;6.90;83.40;;;;;;4883754;28;91972;-75
2020/12/25 08:03:53;;;;;;;4.87;3.37;;;6.80;83.50;;;;;;4867759;28;92441;-76
2020/12/25 08:06:21;;;;;;;7.47;3.80;;;6.90;83.40;;;;;;4866257;28;97174;-74
2020/12/25 08:09:05;;;;;;;7.13;4.17;;;6.90;83.20;;;;;;4866795;28;95885;-75
2020/12/25 08:11:31;;;;;;;6.07;3.03;;;7.00;82.40;;;;;;4885305;28;92569;-76
2020/12/25 08:14:07;;;;;;;5.50;2.93;;;7.00;81.40;;;;;;4869390;28;91498;-76
2020/12/25 08:16:36;;;;;;;6.43;2.90;;;7.00;81.90;;;;;;4865129;28;95793;-75
2020/12/25 08:19:06;;;;;;;5.17;3.17;;;7.00;81.60;;;;;;4867190;28;96073;-76
2020/12/25 08:21:33;;;;;;;5.27;3.33;;;7.00;81.00;;;;;;4866683;28;93676;-75
2020/12/25 08:24:01;;;;;;;5.03;2.90;;;7.00;80.90;;;;;;4867568;28;92257;-75
2020/12/25 08:26:31;;;;;;;4.47;2.90;;;7.00;80.90;;;;;;4866571;28;93219;-76
2020/12/25 08:28:58;;;;;;;4.57;3.10;;;7.00;80.90;;;;;;4867789;28;96393;-75
2020/12/25 08:31:24;;;;;;;10.33;4.20;;;7.10;80.50;;;;;;4866746;28;92110;-75
2020/12/25 08:33:56;;;;;;;10.93;4.60;;;7.10;80.50;;;;;;4867237;28;91995;-75
2020/12/25 08:36:24;;;;;;;7.70;4.43;;;7.10;80.20;;;;;;4866211;28;96126;-75
2020/12/25 08:38:50;;;;;;;7.30;4.10;;;7.20;80.20;;;;;;4851207;28;96762;-75
2020/12/25 08:41:17;;;;;;;8.30;3.73;;;7.20;80.20;;;;;;4866907;28;91955;-75
2020/12/25 08:43:43;;;;;;;7.30;3.83;;;7.30;79.70;;;;;;4882661;28;92041;-75
2020/12/25 08:46:09;;;;;;;7.70;3.57;;;7.40;79.90;;;;;;4866344;28;98057;-76
2020/12/25 08:48:49;;;;;;;6.17;3.03;;;7.40;79.50;;;;;;4867547;28;94165;-78
2020/12/25 08:51:16;;;;;;;5.10;2.83;;;7.50;79.80;;;;;;4888421;28;92241;-77
2020/12/25 08:53:50;;;;;;;5.23;2.93;;;7.60;79.30;;;;;;4869129;28;92133;-76
2020/12/25 08:56:21;;;;;;;7.17;3.63;;;7.70;78.70;;;;;;4865520;28;96719;-75
2020/12/25 08:59:04;;;;;;;6.80;4.10;;;7.60;78.40;;;;;;4882100;28;92926;-76
2020/12/25 09:01:32;;;;;;;3.90;2.80;;;7.70;78.60;;;;;;4865376;28;92043;-75
2020/12/25 09:04:01;;;;;;;7.03;3.70;;;7.70;78.10;;;;;;4866389;28;91727;-76
2020/12/25 09:06:30;;;;;;;5.17;3.17;;;7.60;78.10;;;;;;4881634;28;92444;-75
2020/12/25 09:08:56;;;;;;;5.33;3.60;;;7.60;78.20;;;;;;4897045;28;93522;-76
2020/12/25 09:11:24;;;;;;;6.63;3.97;;;7.60;78.50;;;;;;4864556;28;92807;-75
2020/12/25 09:13:54;;;;;;;5.33;3.30;;;7.60;78.90;;;;;;4865462;28;91893;-76
2020/12/25 09:16:20;;;;;;;6.70;3.70;;;7.50;79.20;;;;;;4864920;28;93970;-75
2020/12/25 09:18:46;;;;;;;7.50;4.63;;;7.50;79.00;;;;;;4865060;28;96288;-76
2020/12/25 09:21:14;;;;;;;7.97;5.03;;;7.60;79.30;;;;;;4865661;28;91911;-75
2020/12/25 09:23:40;;;;;;;6.47;4.30;;;7.60;79.70;;;;;;4864961;28;92711;-76
2020/12/25 09:26:07;;;;;;;9.20;5.20;;;7.60;79.60;;;;;;4865109;28;96489;-76
2020/12/25 09:28:34;;;;;;;10.43;4.93;;;7.60;80.10;;;;;;4849032;28;96733;-75
2020/12/25 09:31:02;;;;;;;12.33;5.90;;;7.70;80.30;;;;;;4882714;28;91915;-76
2020/12/25 09:33:28;;;;;;;7.03;4.73;;;7.70;79.90;;;;;;4864590;28;92242;-76
2020/12/25 09:35:54;;;;;;;10.23;5.17;;;7.80;79.80;;;;;;4864719;28;93924;-75
2020/12/25 09:38:20;;;;;;;9.07;5.20;;;7.70;79.60;;;;;;4896823;28;93201;-75
2020/12/25 09:40:52;;;;;;;9.60;5.87;;;7.80;79.60;;;;;;4864832;28;91845;-76
2020/12/25 09:43:19;;;;;;;10.93;6.47;;;7.80;80.00;;;;;;4865438;28;92233;-75
2020/12/25 09:45:45;;;;;;;10.33;6.03;;;7.90;80.00;;;;;;4863916;28;96195;-75
2020/12/25 09:48:11;;;;;;;8.47;5.53;;;7.90;79.90;;;;;;4864795;28;95570;-75
2020/12/25 09:50:37;;;;;;;8.33;5.40;;;7.90;79.60;;;;;;4881050;28;92427;-75
2020/12/25 09:53:04;;;;;;;6.97;5.23;;;7.90;79.50;;;;;;4897210;28;91658;-76
2020/12/25 09:55:35;;;;;;;7.93;5.73;;;8.00;79.80;;;;;;4863759;28;97149;-75
2020/12/25 09:58:01;;;;;;;9.82;5.85;;;7.90;78.80;;;;;;4864770;28;96034;-75
2020/12/25 10:00:27;;;;;;;7.20;4.93;;;7.90;78.80;;;;;;4880772;28;92900;-75
2020/12/25 10:02:53;;;;;;;7.33;5.43;;;7.80;78.10;;;;;;4864870;28;92055;-75
2020/12/25 10:05:19;;;;;;;7.17;5.07;;;7.80;77.30;;;;;;4882271;28;92932;-75
2020/12/25 10:07:44;;;;;;;5.73;3.53;;;7.70;78.00;;;;;;4848447;28;95497;-76
2020/12/25 10:10:10;;;;;;;5.77;3.83;;;7.50;76.80;;;;;;4882604;28;91912;-75
2020/12/25 10:12:36;;;;;;;5.63;4.20;;;7.40;77.20;;;;;;4864102;28;92257;-75
2020/12/25 10:15:03;;;;;;;7.60;4.60;;;7.30;78.40;;;;;;4864781;28;96344;-75
2020/12/25 10:17:29;;;;;;;7.70;5.60;;;7.40;79.20;;;;;;4864780;28;93049;-75
2020/12/25 10:19:55;;;;;;;5.80;4.00;;;7.40;78.20;;;;;;4897397;28;91997;-75
2020/12/25 10:22:22;;;;;;;5.47;3.93;;;7.40;78.00;;;;;;4882385;28;92159;-75
2020/12/25 10:24:48;;;;;;;5.77;3.70;;;7.30;77.70;;;;;;4863773;28;94044;-75
2020/12/25 10:27:14;;;;;;;6.07;3.70;;;7.30;77.20;;;;;;4864548;28;97030;-76
2020/12/25 10:29:40;;;;;;;5.77;4.20;;;7.30;77.40;;;;;;4881343;28;92251;-76
2020/12/25 10:32:06;;;;;;;6.03;3.83;;;7.40;77.40;;;;;;4865399;28;92673;-80
2020/12/25 10:34:32;;;;;;;6.33;3.40;;;7.30;75.50;;;;;;4848695;28;97591;-79
2020/12/25 10:36:59;;;;;;;8.40;4.37;;;7.30;76.70;;;;;;4864369;28;95234;-76
2020/12/25 10:39:25;;;;;;;7.37;3.83;;;7.30;76.20;;;;;;4863848;28;92071;-75
2020/12/25 10:41:51;;;;;;;5.83;4.10;;;7.30;76.20;;;;;;4884585;28;91418;-76
2020/12/25 10:44:17;;;;;;;6.47;3.90;;;7.40;76.00;;;;;;4867793;28;95406;-75
2020/12/25 10:46:43;;;;;;;5.40;3.57;;;7.30;74.90;;;;;;4898509;28;96273;-75
2020/12/25 10:49:09;;;;;;;5.27;3.80;;;7.30;75.30;;;;;;4851593;28;93081;-75
2020/12/25 10:51:34;;;;;;;6.63;3.90;;;7.40;75.90;;;;;;4898486;28;92154;-76
2020/12/25 10:54:00;;;;;;;6.37;4.37;;;7.40;75.60;;;;;;4867125;28;96051;-75
2020/12/25 10:56:29;;;;;;;9.77;4.67;;;7.50;75.90;;;;;;4884319;28;92666;-75
2020/12/25 10:58:55;;;;;;;7.40;4.60;;;7.50;76.20;;;;;;4867676;28;92019;-76
2020/12/25 11:01:25;;;;;;;7.43;4.27;;;7.50;76.00;;;;;;4867888;28;92145;-76
2020/12/25 11:03:52;;;;;;;9.80;3.90;;;7.50;75.50;;;;;;4898578;28;93642;-75
2020/12/25 11:06:18;;;;;;;6.83;4.40;;;7.50;75.00;;;;;;4867887;28;93026;-76
2020/12/25 11:08:47;;;;;;;6.17;4.10;;;7.50;75.20;;;;;;4884076;28;92333;-76
2020/12/25 11:11:23;;;;;;;6.87;4.10;;;7.60;75.00;;;;;;4867296;28;92148;-76
2020/12/25 11:13:48;;;;;;;6.23;3.53;;;7.60;74.20;;;;;;4883103;28;94735;-75
2020/12/25 11:16:27;;;;;;;5.27;4.00;;;7.70;73.90;;;;;;4884093;28;93760;-75
2020/12/25 11:18:55;;;;;;;7.03;4.07;;;7.70;73.90;;;;;;4866836;28;91841;-75
2020/12/25 11:21:22;;;;;;;6.93;5.30;;;7.70;73.60;;;;;;4867297;28;92117;-76
2020/12/25 11:23:50;;;;;;;6.40;4.00;;;7.80;73.30;;;;;;4866043;28;96431;-76
2020/12/25 11:26:21;;;;;;;7.40;3.80;;;7.80;72.90;;;;;;4867077;28;92872;-76
2020/12/25 11:28:47;;;;;;;5.37;3.20;;;7.80;72.50;;;;;;4866263;28;92644;-76
2020/12/25 11:31:13;;;;;;;6.17;3.40;;;7.70;72.80;;;;;;4867018;28;91384;-75
2020/12/25 11:33:39;;;;;;;8.57;3.70;;;7.70;73.10;;;;;;4883207;28;92711;-75
2020/12/25 11:36:06;;;;;;;5.73;3.60;;;7.70;73.00;;;;;;4866934;28;95607;-76
2020/12/25 11:38:32;;;;;;;4.87;3.30;;;7.70;72.60;;;;;;4866072;28;93117;-75
2020/12/25 11:40:58;;;;;;;8.40;4.07;;;7.70;73.00;;;;;;4867337;28;92138;-76
2020/12/25 11:43:23;;;;;;;5.63;4.00;;;7.60;73.30;;;;;;4867033;28;96249;-76
2020/12/25 11:45:49;;;;;;;6.53;3.53;;;7.60;73.50;;;;;;4883625;28;92237;-75
2020/12/25 11:48:15;;;;;;;4.87;3.20;;;7.50;73.60;;;;;;4867758;28;91895;-76
2020/12/25 11:50:41;;;;;;;5.23;3.20;;;7.40;73.80;;;;;;4850873;28;92195;-76
2020/12/25 11:53:07;;;;;;;4.47;3.07;;;7.40;73.70;;;;;;4866092;28;92763;-75
2020/12/25 11:55:33;;;;;;;4.57;3.40;;;7.30;73.30;;;;;;4866498;28;92941;-74
2020/12/25 11:57:58;;;;;;;5.83;3.83;;;7.30;73.40;;;;;;4867599;28;91978;-78
2020/12/25 12:00:24;;;;;;;5.03;3.67;;;7.30;74.20;;;;;;4867514;28;92003;-75
2020/12/25 12:02:50;;;;;;;7.83;4.27;;;7.20;74.00;;;;;;4897565;28;95724;-75
2020/12/25 12:05:16;;;;;;;5.33;4.07;;;7.30;74.70;;;;;;4867025;28;96916;-75
2020/12/25 12:07:41;;;;;;;8.13;4.47;;;7.30;75.00;;;;;;4866768;28;92105;-76
2020/12/25 12:10:07;;;;;;;8.43;4.90;;;7.30;74.90;;;;;;4867032;28;92127;-75
2020/12/25 12:12:33;;;;;;;7.50;4.70;;;7.30;74.90;;;;;;4883709;28;93692;-74
2020/12/25 12:14:59;;;;;;;7.17;4.00;;;7.40;73.80;;;;;;4898756;28;92772;-75
2020/12/25 12:17:25;;;;;;;7.57;4.67;;;7.40;74.20;;;;;;4853078;28;92180;-76
2020/12/25 12:19:50;;;;;;;7.03;4.03;;;7.40;73.50;;;;;;4870316;28;91921;-76
2020/12/25 12:22:16;;;;;;;6.57;3.80;;;7.40;72.80;;;;;;4887354;28;93246;-76
2020/12/25 12:24:42;;;;;;;5.83;3.80;;;7.30;73.00;;;;;;4865274;28;95943;-76
2020/12/25 12:27:08;;;;;;;9.57;5.93;;;7.30;72.70;;;;;;4883593;28;93342;-76
2020/12/25 12:29:35;;;;;;;5.93;3.10;;;7.20;72.40;;;;;;4866866;28;92637;-75
2020/12/25 12:32:01;;;;;;;3.03;2.03;;;7.20;71.30;;;;;;4882610;28;93324;-75
2020/12/25 12:34:26;;;;;;;3.77;1.87;;;7.10;69.70;;;;;;4882170;28;96583;-76
2020/12/25 12:36:52;;;;;;;3.20;1.67;;;7.00;67.90;;;;;;4883182;28;91978;-79
2020/12/25 12:39:19;;;;;;;2.60;1.60;;;7.00;68.00;;;;;;4866725;28;91999;-76
2020/12/25 12:41:44;;;;;;;4.57;2.40;;;7.00;67.60;;;;;;4865648;28;96021;-76
2020/12/25 12:44:10;;;;;;;3.53;1.97;;;7.10;67.40;;;;;;4883807;28;92283;-75
2020/12/25 12:46:36;;;;;;;3.97;2.07;;;7.10;67.60;;;;;;4866240;28;91916;-75
2020/12/25 12:49:02;;;;;;;3.27;2.47;;;7.20;68.00;;;;;;4898291;28;92164;-77
2020/12/25 12:51:28;;;;;;;4.93;3.00;;;7.20;68.70;;;;;;4867503;28;94356;-77
2020/12/25 12:53:53;;;;;;;5.50;3.60;;;7.20;69.00;;;;;;4865173;28;96688;-75
2020/12/25 12:56:19;;;;;;;5.40;3.80;;;7.30;69.20;;;;;;4883299;28;91962;-75
2020/12/25 12:58:45;;;;;;;6.50;4.40;;;7.20;69.30;;;;;;4865452;28;92106;-75